Time;durP1;ratioP1;P1;durP2;ratioP2;P2;SDS_P1;SDS_P2;PMS_P1;PMS_P2;Temp;Humidity;BMP_temperature;BMP_pressure;BME280_temperature;BME280_humidity;BME280_pressure;Samples;Min_cycle;Max_cycle;Signal;HPM_P1;HPM_P2
2022/07/12 00:00:21;;;;;;;0.98;0.68;;;15.30;99.90;;;;;;4948717;28;20054;-74
2022/07/12 00:02:46;;;;;;;0.30;0.30;;;15.30;99.90;;;;;;4941035;28;20039;-72
2022/07/12 00:05:12;;;;;;;0.28;0.28;;;15.20;99.90;;;;;;4958567;28;20855;-75
2022/07/12 00:07:41;;;;;;;0.30;0.30;;;15.20;99.90;;;;;;4955408;28;20055;-73
2022/07/12 00:10:13;;;;;;;0.30;0.30;;;15.20;99.90;;;;;;4960810;28;20123;-75
2022/07/12 00:12:39;;;;;;;0.20;0.20;;;15.20;99.90;;;;;;4961356;28;20042;-71
2022/07/12 00:15:06;;;;;;;0.20;0.20;;;15.20;99.90;;;;;;4960554;28;20038;-72
2022/07/12 00:17:38;;;;;;;0.20;0.20;;;15.20;99.90;;;;;;4955212;28;20058;-71
2022/07/12 00:20:04;;;;;;;;;;;15.20;99.90;;;;;;4961091;28;20046;-75
2022/07/12 00:22:31;;;;;;;0.20;0.20;;;15.20;99.90;;;;;;4956188;28;19923;-73
2022/07/12 00:24:57;;;;;;;0.38;0.38;;;15.30;99.90;;;;;;4955973;28;20082;-74
2022/07/12 00:27:23;;;;;;;0.30;0.30;;;15.20;99.90;;;;;;4966087;28;20078;-70
2022/07/12 00:29:48;;;;;;;0.20;0.20;;;15.20;99.90;;;;;;4966128;28;20039;-73
2022/07/12 00:32:14;;;;;;;0.30;0.30;;;15.30;99.90;;;;;;4965772;28;20482;-74
2022/07/12 00:34:39;;;;;;;;;;;15.20;99.90;;;;;;4965099;28;20447;-72
2022/07/12 00:37:05;;;;;;;0.30;0.30;;;15.30;99.90;;;;;;4959811;28;19919;-75
2022/07/12 00:39:31;;;;;;;0.30;0.30;;;15.30;99.90;;;;;;4959577;28;20043;-74
2022/07/12 00:41:56;;;;;;;;;;;15.30;99.90;;;;;;4963651;28;20459;-73
2022/07/12 00:44:22;;;;;;;0.40;0.40;;;15.30;99.90;;;;;;4959792;28;19960;-76
2022/07/12 00:46:48;;;;;;;;;;;15.20;99.90;;;;;;4962251;28;20061;-75
2022/07/12 00:49:15;;;;;;;0.20;0.20;;;15.20;99.90;;;;;;4963186;28;19918;-75
2022/07/12 00:51:43;;;;;;;0.20;0.20;;;15.20;99.90;;;;;;4965816;28;20395;-73
2022/07/12 00:54:10;;;;;;;0.30;0.30;;;15.20;99.90;;;;;;4945322;28;20043;-71
2022/07/12 00:56:36;;;;;;;0.30;0.30;;;15.20;99.90;;;;;;4953880;28;20096;-75
2022/07/12 00:59:02;;;;;;;0.30;0.30;;;15.20;99.90;;;;;;4959338;28;20050;-72
2022/07/12 01:01:30;;;;;;;0.30;0.30;;;15.20;99.90;;;;;;4967588;28;20040;-74
2022/07/12 01:03:56;;;;;;;0.28;0.28;;;15.20;99.90;;;;;;4941584;28;20046;-71
2022/07/12 01:06:23;;;;;;;0.22;0.22;;;15.10;99.90;;;;;;4956822;28;20051;-72
2022/07/12 01:08:49;;;;;;;0.25;0.25;;;15.10;99.90;;;;;;4941504;28;21178;-75
2022/07/12 01:11:16;;;;;;;0.40;0.40;;;15.10;99.90;;;;;;4960058;28;20055;-71
2022/07/12 01:13:48;;;;;;;0.20;0.20;;;15.10;99.90;;;;;;4958905;28;20168;-73
2022/07/12 01:16:14;;;;;;;0.20;0.20;;;15.10;99.90;;;;;;4961313;28;20567;-74
2022/07/12 01:18:40;;;;;;;0.30;0.30;;;15.10;99.90;;;;;;4960450;28;20411;-76
2022/07/12 01:21:08;;;;;;;0.25;0.25;;;15.10;99.90;;;;;;4959548;28;20047;-73
2022/07/12 01:23:34;;;;;;;0.30;0.30;;;15.10;99.90;;;;;;4960746;28;20051;-74
2022/07/12 01:26:03;;;;;;;0.20;0.20;;;15.10;99.90;;;;;;4943429;28;20051;-72
2022/07/12 01:28:29;;;;;;;0.30;0.30;;;15.10;99.90;;;;;;4958725;28;20488;-74
2022/07/12 01:30:54;;;;;;;0.20;0.20;;;15.10;99.90;;;;;;4954079;28;20050;-75
2022/07/12 01:33:20;;;;;;;;;;;15.10;99.90;;;;;;4965029;28;20516;-76
2022/07/12 01:35:47;;;;;;;0.30;0.30;;;15.20;99.90;;;;;;4962695;28;19918;-74
2022/07/12 01:38:12;;;;;;;0.25;0.25;;;15.10;99.90;;;;;;4961571;28;20419;-74
2022/07/12 01:40:39;;;;;;;0.20;0.20;;;15.10;99.90;;;;;;4952773;28;20052;-72
2022/07/12 01:43:05;;;;;;;0.22;0.22;;;15.10;99.90;;;;;;4956279;28;20086;-74
2022/07/12 01:45:31;;;;;;;;;;;15.10;99.90;;;;;;4960447;28;20054;-74
2022/07/12 01:47:58;;;;;;;0.30;0.30;;;15.10;99.90;;;;;;4954867;28;19918;-72
2022/07/12 01:50:24;;;;;;;0.40;0.40;;;15.10;99.90;;;;;;4962485;28;20089;-73
2022/07/12 01:52:52;;;;;;;0.20;0.20;;;15.10;99.90;;;;;;4959950;28;20078;-74
2022/07/12 01:55:18;;;;;;;0.35;0.35;;;15.10;99.90;;;;;;4956026;28;20118;-75
2022/07/12 01:57:44;;;;;;;0.30;0.30;;;15.10;99.90;;;;;;4960854;28;20055;-75
2022/07/12 02:00:14;;;;;;;0.28;0.28;;;15.10;99.90;;;;;;4956704;28;20046;-74
2022/07/12 02:02:40;;;;;;;0.40;0.40;;;15.10;99.90;;;;;;4957897;28;20388;-75
2022/07/12 02:05:06;;;;;;;0.30;0.30;;;15.10;99.90;;;;;;4954417;28;20051;-74
2022/07/12 02:07:35;;;;;;;0.20;0.20;;;15.10;99.90;;;;;;4952514;28;20043;-72
2022/07/12 02:10:01;;;;;;;0.20;0.20;;;15.10;99.90;;;;;;4961441;28;20488;-71
2022/07/12 02:12:30;;;;;;;0.60;0.60;;;15.10;99.90;;;;;;4960564;28;20035;-72
2022/07/12 02:15:00;;;;;;;0.30;0.30;;;15.10;99.90;;;;;;4959676;28;20119;-73
2022/07/12 02:17:26;;;;;;;0.30;0.30;;;15.00;99.90;;;;;;4955463;28;20054;-73
2022/07/12 02:19:52;;;;;;;0.20;0.20;;;15.00;99.90;;;;;;4965838;28;20046;-73
2022/07/12 02:22:19;;;;;;;0.40;0.40;;;15.00;99.90;;;;;;4957032;28;20062;-73
2022/07/12 02:24:45;;;;;;;0.20;0.20;;;15.00;99.90;;;;;;4958573;28;20041;-75
2022/07/12 02:27:11;;;;;;;0.43;0.40;;;15.00;99.90;;;;;;4955446;28;20043;-74
2022/07/12 02:29:36;;;;;;;0.40;0.40;;;14.90;99.90;;;;;;4959984;28;20130;-73
2022/07/12 02:32:02;;;;;;;0.20;0.20;;;15.00;99.90;;;;;;4970094;28;20104;-75
2022/07/12 02:34:30;;;;;;;0.40;0.40;;;15.00;99.90;;;;;;4973935;28;20043;-75
2022/07/12 02:36:56;;;;;;;0.20;0.20;;;15.00;99.90;;;;;;4964188;28;20062;-75
2022/07/12 02:39:21;;;;;;;0.20;0.20;;;15.00;99.90;;;;;;4977122;28;20044;-73
2022/07/12 02:41:47;;;;;;;;;;;15.00;99.90;;;;;;4960979;28;20071;-73
2022/07/12 02:44:13;;;;;;;0.30;0.30;;;15.00;99.90;;;;;;4957693;28;19918;-76
2022/07/12 02:46:38;;;;;;;;;;;15.00;99.90;;;;;;4962780;28;20415;-73
2022/07/12 02:49:04;;;;;;;0.20;0.20;;;15.00;99.90;;;;;;4960506;28;19922;-76
2022/07/12 02:51:30;;;;;;;0.20;0.20;;;15.00;99.90;;;;;;4957711;28;20130;-72
2022/07/12 02:53:59;;;;;;;0.43;0.43;;;14.90;99.90;;;;;;4966674;28;20039;-74
2022/07/12 02:56:26;;;;;;;0.22;0.22;;;14.90;99.90;;;;;;4957225;28;20113;-75
2022/07/12 02:58:52;;;;;;;0.30;0.30;;;14.90;99.90;;;;;;4959551;28;20055;-73
2022/07/12 03:01:19;;;;;;;0.20;0.20;;;14.90;99.90;;;;;;4957577;28;20035;-74
2022/07/12 03:03:44;;;;;;;0.50;0.50;;;14.90;99.90;;;;;;4968442;28;20057;-75
2022/07/12 03:06:11;;;;;;;0.30;0.30;;;14.90;99.90;;;;;;4964207;28;20446;-73
2022/07/12 03:08:37;;;;;;;0.20;0.20;;;14.90;99.90;;;;;;4947619;28;20086;-74
2022/07/12 03:11:02;;;;;;;0.45;0.45;;;14.90;99.90;;;;;;4961348;28;20067;-75
2022/07/12 03:13:28;;;;;;;;;;;14.90;99.90;;;;;;4956547;28;20390;-73
2022/07/12 03:15:54;;;;;;;0.40;0.40;;;14.90;99.90;;;;;;4940034;28;19918;-75
2022/07/12 03:18:19;;;;;;;;;;;14.90;99.90;;;;;;4951760;28;20055;-74
2022/07/12 03:20:45;;;;;;;0.35;0.35;;;14.80;99.90;;;;;;4958677;28;20383;-71
2022/07/12 03:23:10;;;;;;;;;;;14.80;99.90;;;;;;4949981;28;20043;-73
2022/07/12 03:25:37;;;;;;;0.38;0.38;;;14.80;99.90;;;;;;4955969;28;19972;-71
2022/07/12 03:28:04;;;;;;;0.20;0.20;;;14.80;99.90;;;;;;4963696;28;20042;-74
2022/07/12 03:30:29;;;;;;;0.25;0.25;;;14.80;99.90;;;;;;4957784;28;20072;-73
2022/07/12 03:32:55;;;;;;;0.30;0.30;;;14.80;99.90;;;;;;4959842;28;20072;-71
2022/07/12 03:35:21;;;;;;;0.28;0.28;;;14.80;99.90;;;;;;4957236;28;20050;-73
2022/07/12 03:37:49;;;;;;;0.30;0.30;;;14.80;99.90;;;;;;4962874;28;20042;-73
2022/07/12 03:40:16;;;;;;;0.55;0.55;;;14.80;99.90;;;;;;4953554;28;20146;-73
2022/07/12 03:42:42;;;;;;;0.20;0.20;;;14.80;99.90;;;;;;4955609;28;20372;-74
2022/07/12 03:45:08;;;;;;;;;;;14.80;99.90;;;;;;4961664;28;20039;-73
2022/07/12 03:47:41;;;;;;;0.30;0.30;;;14.80;99.90;;;;;;4967081;28;19974;-72
2022/07/12 03:50:12;;;;;;;0.25;0.25;;;14.80;99.90;;;;;;4959996;28;20051;-73
2022/07/12 03:52:39;;;;;;;0.30;0.30;;;14.80;99.90;;;;;;4928876;29;20399;-73
2022/07/12 03:55:05;;;;;;;0.20;0.20;;;14.90;99.90;;;;;;4963206;28;20055;-72
2022/07/12 03:57:31;;;;;;;0.20;0.20;;;14.90;99.90;;;;;;4966180;28;20513;-73
2022/07/12 03:59:57;;;;;;;0.30;0.30;;;14.90;99.90;;;;;;4959031;28;20054;-71
2022/07/12 04:02:23;;;;;;;;;;;14.90;99.90;;;;;;4959678;28;20484;-71
2022/07/12 04:04:51;;;;;;;0.30;0.30;;;14.90;99.90;;;;;;4947377;28;19918;-71
2022/07/12 04:07:17;;;;;;;0.75;0.75;;;15.00;99.90;;;;;;4949783;28;20403;-73
2022/07/12 04:09:46;;;;;;;0.20;0.20;;;15.00;99.90;;;;;;4965590;28;20043;-72
2022/07/12 04:12:16;;;;;;;0.22;0.22;;;15.00;99.90;;;;;;4960749;28;20065;-73
2022/07/12 04:14:42;;;;;;;0.30;0.30;;;15.00;99.90;;;;;;4956975;28;20135;-73
2022/07/12 04:17:08;;;;;;;0.30;0.30;;;15.00;99.90;;;;;;4960823;28;20070;-72
2022/07/12 04:19:35;;;;;;;0.40;0.40;;;15.00;99.90;;;;;;4945134;28;20055;-75
2022/07/12 04:22:02;;;;;;;0.25;0.25;;;15.00;99.90;;;;;;4955237;28;20053;-74
2022/07/12 04:24:33;;;;;;;0.40;0.40;;;15.00;99.90;;;;;;4946360;28;20100;-72
2022/07/12 04:26:59;;;;;;;0.30;0.30;;;15.00;99.90;;;;;;4955852;28;20476;-73
2022/07/12 04:29:24;;;;;;;;;;;15.00;99.90;;;;;;4956405;28;20047;-73
2022/07/12 04:31:50;;;;;;;0.30;0.30;;;14.90;99.90;;;;;;4957612;28;19923;-71
2022/07/12 04:34:16;;;;;;;0.30;0.30;;;15.00;99.90;;;;;;4952866;28;20074;-73
2022/07/12 04:36:47;;;;;;;0.50;0.50;;;15.00;99.90;;;;;;4958130;28;20130;-73
2022/07/12 04:39:13;;;;;;;0.40;0.40;;;15.10;99.90;;;;;;4958846;28;20396;-75
2022/07/12 04:41:40;;;;;;;0.32;0.32;;;15.10;99.90;;;;;;4958308;28;20051;-72
2022/07/12 04:44:07;;;;;;;0.20;0.20;;;15.10;99.90;;;;;;4960523;28;20043;-73
2022/07/12 04:46:33;;;;;;;0.40;0.40;;;15.10;99.90;;;;;;4959840;28;20131;-74
2022/07/12 04:48:59;;;;;;;0.30;0.30;;;15.10;99.90;;;;;;4964745;28;20460;-74
2022/07/12 04:51:25;;;;;;;0.30;0.30;;;15.20;99.90;;;;;;4960203;28;20396;-71
2022/07/12 04:53:50;;;;;;;0.30;0.30;;;15.20;99.90;;;;;;4959328;28;20096;-72
2022/07/12 04:56:16;;;;;;;;;;;15.20;99.90;;;;;;4950146;28;20423;-71
2022/07/12 04:58:42;;;;;;;0.30;0.30;;;15.20;99.90;;;;;;4938838;28;19926;-75
2022/07/12 05:01:07;;;;;;;;;;;15.20;99.90;;;;;;4963590;28;20039;-71
2022/07/12 05:03:34;;;;;;;0.28;0.28;;;15.20;99.90;;;;;;4936607;28;19922;-73
2022/07/12 05:06:01;;;;;;;0.30;0.30;;;15.20;99.90;;;;;;4959781;28;20087;-71
2022/07/12 05:08:30;;;;;;;0.30;0.30;;;15.20;99.90;;;;;;4957962;28;20051;-71
2022/07/12 05:10:55;;;;;;;0.30;0.30;;;15.10;99.90;;;;;;4954910;28;20039;-73
2022/07/12 05:13:21;;;;;;;;;;;15.20;99.90;;;;;;4939586;28;20043;-72
2022/07/12 05:15:47;;;;;;;1.08;1.08;;;15.20;99.90;;;;;;4956784;28;19918;-74
2022/07/12 05:18:13;;;;;;;0.22;0.22;;;15.20;99.90;;;;;;4943799;28;20050;-73
2022/07/12 05:20:38;;;;;;;;;;;15.20;99.90;;;;;;4954208;28;20125;-74
2022/07/12 05:23:04;;;;;;;0.30;0.30;;;15.30;99.90;;;;;;4957947;28;20306;-73
2022/07/12 05:25:29;;;;;;;;;;;15.30;99.90;;;;;;4964699;28;20092;-73
2022/07/12 05:27:55;;;;;;;0.20;0.20;;;15.50;99.90;;;;;;4959822;28;20000;-73
2022/07/12 05:30:21;;;;;;;;;;;15.50;99.90;;;;;;4964449;28;20050;-72
2022/07/12 05:32:47;;;;;;;0.30;0.30;;;15.60;99.90;;;;;;4954645;28;19918;-72
2022/07/12 05:35:12;;;;;;;0.20;0.20;;;15.70;99.90;;;;;;4953691;28;20043;-72
2022/07/12 05:37:41;;;;;;;0.20;0.20;;;15.80;99.90;;;;;;4942260;28;20050;-74
2022/07/12 05:40:07;;;;;;;0.30;0.30;;;15.90;99.90;;;;;;4949962;28;20058;-74
2022/07/12 05:42:36;;;;;;;0.30;0.30;;;16.10;99.90;;;;;;4959751;28;20043;-73
2022/07/12 05:45:02;;;;;;;0.40;0.40;;;16.20;99.90;;;;;;4943278;29;20050;-73
2022/07/12 05:47:28;;;;;;;0.30;0.30;;;16.30;99.90;;;;;;4967374;28;20086;-74
2022/07/12 05:49:54;;;;;;;0.32;0.32;;;16.30;99.90;;;;;;4960326;28;20039;-72
2022/07/12 05:55:05;;;;;;;0.28;0.28;;;16.30;99.90;;;;;;4959458;28;20047;-73
2022/07/12 05:57:31;;;;;;;0.25;0.25;;;15.90;99.90;;;;;;4952758;28;20054;-73
2022/07/12 05:59:57;;;;;;;0.30;0.30;;;16.50;99.90;;;;;;4951103;28;20436;-74
2022/07/12 06:02:22;;;;;;;;;;;16.60;99.90;;;;;;4954036;28;20035;-75
2022/07/12 06:04:48;;;;;;;0.10;0.10;;;16.70;99.90;;;;;;4946399;28;19926;-77
2022/07/12 06:07:14;;;;;;;1.85;1.00;;;16.70;99.90;;;;;;4960392;28;20058;-75
2022/07/12 06:09:40;;;;;;;0.47;0.47;;;16.70;99.90;;;;;;4957738;28;20063;-77
2022/07/12 06:12:06;;;;;;;;;;;16.70;99.90;;;;;;4964422;28;20050;-75
2022/07/12 06:14:31;;;;;;;0.20;0.20;;;16.80;99.90;;;;;;4946468;28;19918;-77
2022/07/12 06:17:00;;;;;;;0.65;0.65;;;16.80;99.90;;;;;;4958221;28;20188;-77
2022/07/12 06:19:26;;;;;;;0.20;0.20;;;16.80;99.90;;;;;;4955272;28;20137;-80
2022/07/12 06:21:52;;;;;;;0.20;0.20;;;16.90;99.90;;;;;;4935793;29;20150;-79
2022/07/12 06:24:18;;;;;;;0.20;0.20;;;17.10;99.90;;;;;;4957869;28;20500;-81
2022/07/12 06:26:45;;;;;;;0.30;0.30;;;17.20;99.90;;;;;;4947483;28;20050;-82
2022/07/12 06:29:10;;;;;;;0.20;0.20;;;17.30;99.90;;;;;;5017533;28;20145;-79
2022/07/12 06:31:36;;;;;;;0.30;0.30;;;17.30;99.90;;;;;;4945475;28;20098;-80
2022/07/12 06:34:02;;;;;;;;;;;17.40;99.90;;;;;;4954305;28;20039;-81
2022/07/12 06:36:28;;;;;;;0.30;0.30;;;17.40;99.90;;;;;;4938104;28;19993;-78
2022/07/12 06:38:53;;;;;;;;;;;17.50;99.90;;;;;;4931608;29;20177;-76
2022/07/12 06:41:19;;;;;;;0.30;0.30;;;17.50;99.90;;;;;;4954064;28;20100;-78
2022/07/12 06:43:45;;;;;;;;;;;17.70;99.90;;;;;;4952411;28;20580;-79
2022/07/12 06:46:10;;;;;;;0.30;0.30;;;17.70;99.90;;;;;;4959583;28;20389;-80
2022/07/12 06:48:41;;;;;;;0.28;0.28;;;17.90;99.90;;;;;;4962730;28;20058;-83
2022/07/12 06:51:14;;;;;;;1.05;0.50;;;18.00;99.90;;;;;;4928978;28;20035;-82
2022/07/12 06:53:40;;;;;;;0.20;0.20;;;18.00;99.90;;;;;;4965938;28;20130;-81
2022/07/12 06:56:06;;;;;;;0.95;0.43;;;18.00;99.90;;;;;;4956961;28;20089;-82
2022/07/12 06:58:32;;;;;;;0.40;0.40;;;18.10;99.90;;;;;;4939874;28;20050;-83
2022/07/12 07:00:58;;;;;;;0.30;0.30;;;18.10;99.90;;;;;;4959798;28;20557;-79
2022/07/12 07:03:24;;;;;;;;;;;18.20;99.90;;;;;;4957501;28;20083;-80
2022/07/12 07:05:50;;;;;;;0.30;0.30;;;18.40;99.90;;;;;;4953507;28;19961;-79
2022/07/12 07:08:16;;;;;;;;;;;18.40;99.90;;;;;;4954785;28;20059;-80
2022/07/12 07:10:47;;;;;;;0.35;0.35;;;18.50;99.90;;;;;;4925261;28;19925;-81
2022/07/12 07:13:13;;;;;;;;;;;18.60;99.90;;;;;;4952296;28;20519;-82
2022/07/12 07:15:42;;;;;;;0.30;0.30;;;18.60;99.90;;;;;;4947670;28;19918;-79
2022/07/12 07:18:08;;;;;;;0.20;0.20;;;18.80;99.90;;;;;;4958146;28;20168;-81
2022/07/12 07:20:34;;;;;;;;;;;19.00;99.90;;;;;;4953960;28;20396;-82
2022/07/12 07:23:01;;;;;;;0.70;0.60;;;19.20;99.90;;;;;;4963924;28;19918;-79
2022/07/12 07:25:27;;;;;;;0.30;0.30;;;19.40;99.90;;;;;;4947049;28;20129;-80
2022/07/12 07:27:53;;;;;;;0.20;0.20;;;19.60;99.90;;;;;;4966105;28;20034;-76
2022/07/12 07:33:03;;;;;;;0.30;0.30;;;20.30;99.90;;;;;;4973880;28;20051;-75
2022/07/12 07:35:30;;;;;;;0.30;0.30;;;20.40;99.90;;;;;;4969899;28;20044;-73
2022/07/12 07:38:02;;;;;;;0.20;0.20;;;20.70;99.90;;;;;;4968706;28;20055;-77
2022/07/12 07:40:29;;;;;;;0.30;0.30;;;20.80;99.90;;;;;;4961220;28;20046;-76
2022/07/12 07:42:55;;;;;;;0.20;0.20;;;20.90;99.90;;;;;;4939086;28;20039;-78
2022/07/12 07:45:21;;;;;;;0.30;0.30;;;;;;;;;;4959159;28;20396;-79
2022/07/12 07:47:49;;;;;;;0.20;0.20;;;21.20;99.90;;;;;;4955576;28;20051;-77
2022/07/12 07:50:15;;;;;;;0.40;0.40;;;21.30;99.90;;;;;;4993813;28;20184;-77
2022/07/12 07:52:41;;;;;;;0.20;0.20;;;21.30;99.90;;;;;;4941311;28;20051;-78
2022/07/12 07:55:07;;;;;;;0.28;0.28;;;21.50;99.90;;;;;;4949914;28;20489;-77
2022/07/12 07:57:36;;;;;;;0.20;0.20;;;21.70;99.90;;;;;;4956438;28;20577;-76
2022/07/12 08:00:04;;;;;;;0.20;0.20;;;21.90;99.90;;;;;;4951847;28;20070;-75
2022/07/12 08:02:29;;;;;;;0.30;0.30;;;22.00;99.90;;;;;;4944892;28;20047;-74
2022/07/12 08:05:01;;;;;;;0.20;0.20;;;22.10;99.90;;;;;;4956322;28;20125;-73
2022/07/12 08:07:28;;;;;;;0.10;0.10;;;22.10;99.90;;;;;;4954345;28;20430;-78
2022/07/12 08:09:54;;;;;;;0.50;0.50;;;22.10;99.90;;;;;;4954642;28;20045;-74
2022/07/12 08:12:21;;;;;;;0.17;0.17;;;22.30;99.90;;;;;;4958549;28;20646;-74
2022/07/12 08:14:46;;;;;;;0.47;0.47;;;22.40;99.90;;;;;;4959698;28;20059;-76
2022/07/12 08:17:14;;;;;;;0.30;0.30;;;22.50;99.90;;;;;;4943492;28;20049;-75
2022/07/12 08:19:41;;;;;;;0.20;0.20;;;22.60;99.90;;;;;;4934358;28;20046;-75
2022/07/12 08:22:06;;;;;;;0.35;0.35;;;22.70;99.90;;;;;;4961966;28;20055;-75
2022/07/12 08:24:36;;;;;;;0.30;0.30;;;22.80;99.90;;;;;;4953264;28;20228;-76
2022/07/12 08:27:02;;;;;;;0.20;0.20;;;22.80;99.90;;;;;;4945527;28;20058;-79
2022/07/12 08:29:28;;;;;;;0.20;0.20;;;22.80;99.90;;;;;;4954237;28;20101;-77
2022/07/12 08:31:56;;;;;;;0.55;0.52;;;22.70;99.90;;;;;;4955095;28;20046;-79
2022/07/12 08:34:22;;;;;;;0.20;0.20;;;22.70;99.90;;;;;;4956666;28;20043;-77
2022/07/12 08:36:48;;;;;;;0.28;0.28;;;22.80;99.90;;;;;;4935536;28;20050;-76
2022/07/12 08:39:13;;;;;;;0.20;0.20;;;22.70;99.90;;;;;;4964369;28;20058;-83
2022/07/12 08:41:39;;;;;;;0.50;0.50;;;22.60;99.90;;;;;;4933550;28;20046;-78
2022/07/12 08:44:06;;;;;;;0.43;0.43;;;22.60;99.90;;;;;;4942472;28;20503;-80
2022/07/12 08:46:33;;;;;;;0.20;0.20;;;22.50;99.90;;;;;;4939056;28;20197;-75
2022/07/12 08:49:06;;;;;;;0.20;0.20;;;22.40;99.90;;;;;;4940119;28;20581;-76
2022/07/12 08:51:31;;;;;;;0.80;0.80;;;22.40;99.90;;;;;;4967470;28;20052;-80
2022/07/12 08:54:19;;;;;;;0.10;0.10;;;22.40;99.90;;;;;;4950371;28;20031;-80
2022/07/12 08:56:45;;;;;;;0.30;0.30;;;22.40;99.90;;;;;;4957537;28;20129;-80
2022/07/12 08:59:18;;;;;;;0.20;0.20;;;22.50;99.90;;;;;;4940732;28;20122;-80
2022/07/12 09:02:03;;;;;;;0.63;0.63;;;22.60;99.90;;;;;;4956807;28;20409;-78
2022/07/12 09:04:28;;;;;;;0.85;0.85;;;22.90;99.90;;;;;;4964089;28;20051;-76
2022/07/12 09:06:59;;;;;;;0.30;0.30;;;23.00;99.90;;;;;;4956691;28;20112;-81
2022/07/12 09:09:33;;;;;;;;;;;23.20;99.90;;;;;;4942881;28;20059;-81
2022/07/12 09:11:59;;;;;;;0.60;0.45;;;23.30;99.90;;;;;;4941945;28;19927;-81
2022/07/12 09:14:26;;;;;;;0.40;0.40;;;23.40;99.90;;;;;;4936764;28;20051;-80
2022/07/12 09:17:09;;;;;;;0.60;0.60;;;23.50;99.90;;;;;;4945216;28;20097;-80
2022/07/12 09:19:37;;;;;;;0.25;0.25;;;23.70;99.90;;;;;;4958035;28;20062;-80
2022/07/12 09:22:13;;;;;;;0.20;0.20;;;23.90;99.90;;;;;;4937511;28;20043;-79
2022/07/12 09:24:39;;;;;;;0.10;0.10;;;24.20;99.90;;;;;;4960481;28;20027;-77
2022/07/12 09:27:06;;;;;;;0.20;0.20;;;24.40;99.90;;;;;;4939130;28;20559;-79
2022/07/12 09:29:36;;;;;;;0.10;0.10;;;24.50;99.90;;;;;;4954720;28;20526;-80
2022/07/12 09:37:42;;;;;;;0.20;0.20;;;24.20;99.90;;;;;;5009862;28;20057;-83
2022/07/12 09:40:10;;;;;;;0.20;0.20;;;24.20;99.90;;;;;;4959092;28;20130;-82
2022/07/12 09:42:37;;;;;;;0.20;0.20;;;24.20;99.90;;;;;;4984050;28;20568;-81
2022/07/12 09:45:05;;;;;;;0.20;0.20;;;24.30;99.90;;;;;;4966907;28;20500;-83
2022/07/12 09:47:33;;;;;;;0.32;0.32;;;24.30;99.90;;;;;;4983219;28;20134;-82
2022/07/12 09:49:58;;;;;;;0.20;0.20;;;24.30;99.90;;;;;;4956987;28;20047;-74
2022/07/12 09:52:28;;;;;;;0.30;0.30;;;24.30;99.90;;;;;;4955567;28;20043;-79
2022/07/12 09:54:55;;;;;;;0.40;0.40;;;24.10;99.90;;;;;;4935447;28;20118;-79
2022/07/12 09:57:26;;;;;;;0.20;0.20;;;24.10;99.90;;;;;;4953248;28;20396;-80
2022/07/12 09:59:58;;;;;;;0.80;0.52;;;24.20;99.90;;;;;;4955995;28;20043;-81
2022/07/12 10:02:24;;;;;;;0.20;0.20;;;24.30;99.90;;;;;;4960402;28;20038;-80
2022/07/12 10:04:59;;;;;;;0.30;0.30;;;24.50;99.90;;;;;;4947334;28;20047;-78
2022/07/12 10:07:31;;;;;;;0.40;0.40;;;24.60;99.90;;;;;;4959415;28;20253;-78
2022/07/12 10:09:57;;;;;;;1.95;1.05;;;24.60;99.90;;;;;;4963412;28;20046;-82
2022/07/12 10:12:23;;;;;;;0.20;0.20;;;24.50;99.90;;;;;;4963989;28;20032;-80
2022/07/12 10:15:04;;;;;;;0.43;0.43;;;24.40;99.90;;;;;;4952647;28;20047;-79
2022/07/12 10:17:34;;;;;;;0.47;0.47;;;24.50;99.90;;;;;;4957802;28;20059;-80
2022/07/12 10:20:24;;;;;;;0.20;0.20;;;24.70;99.90;;;;;;4971803;28;20058;-80
2022/07/12 10:23:15;;;;;;;0.10;0.10;;;24.80;99.90;;;;;;4952097;28;20051;-79
2022/07/12 10:25:44;;;;;;;0.20;0.20;;;24.80;99.90;;;;;;4957506;28;20051;-80
2022/07/12 10:28:10;;;;;;;0.20;0.20;;;24.70;99.90;;;;;;4957412;28;20051;-71
2022/07/12 10:30:51;;;;;;;0.20;0.20;;;24.70;99.90;;;;;;4945894;28;20396;-76
2022/07/12 10:33:22;;;;;;;0.17;0.17;;;24.90;99.90;;;;;;4957384;28;20488;-73
2022/07/12 10:36:06;;;;;;;0.22;0.22;;;25.10;99.90;;;;;;4957913;28;20641;-73
2022/07/12 10:38:35;;;;;;;0.28;0.28;;;25.30;99.90;;;;;;4954683;28;20421;-75
2022/07/12 10:41:21;;;;;;;0.30;0.30;;;25.50;99.90;;;;;;4952277;28;20082;-75
2022/07/12 10:44:05;;;;;;;0.20;0.20;;;25.80;99.90;;;;;;4955721;28;20485;-73
2022/07/12 10:46:33;;;;;;;0.30;0.30;;;25.60;99.90;;;;;;4956126;28;20063;-75
2022/07/12 10:49:28;;;;;;;0.20;0.20;;;25.50;99.90;;;;;;4954489;28;20055;-75
2022/07/12 10:52:23;;;;;;;0.25;0.25;;;25.60;99.90;;;;;;4951312;28;20058;-71
2022/07/12 10:54:56;;;;;;;0.10;0.10;;;25.90;99.90;;;;;;4954899;28;20043;-75
2022/07/12 10:58:01;;;;;;;0.45;0.45;;;26.10;99.90;;;;;;4957340;28;20043;-75
2022/07/12 11:00:31;;;;;;;0.20;0.20;;;26.30;99.90;;;;;;4925016;29;20055;-75
2022/07/12 11:03:04;;;;;;;0.20;0.20;;;26.50;99.90;;;;;;4916396;29;20099;-74
2022/07/12 11:05:29;;;;;;;0.38;0.38;;;26.60;99.90;;;;;;4917461;28;20054;-80
2022/07/12 11:07:56;;;;;;;0.20;0.20;;;26.60;99.90;;;;;;4944367;29;20059;-80
2022/07/12 11:10:22;;;;;;;0.10;0.10;;;26.70;99.90;;;;;;4949203;28;20051;-79
2022/07/12 11:12:47;;;;;;;0.10;0.10;;;26.90;99.90;;;;;;4954612;28;20101;-81
2022/07/12 11:15:14;;;;;;;0.10;0.10;;;27.00;99.90;;;;;;4943882;28;20043;-80
2022/07/12 11:17:40;;;;;;;0.20;0.20;;;27.10;99.90;;;;;;4959921;28;20125;-77
2022/07/12 11:20:09;;;;;;;0.10;0.10;;;27.40;99.90;;;;;;4958912;28;20057;-78
2022/07/12 11:22:39;;;;;;;0.20;0.20;;;27.50;99.90;;;;;;4953414;28;20052;-80
2022/07/12 11:25:08;;;;;;;0.10;0.10;;;27.30;99.90;;;;;;4952079;28;20054;-79
2022/07/12 11:27:34;;;;;;;0.30;0.30;;;27.20;99.90;;;;;;4955448;28;20066;-80
2022/07/12 11:30:06;;;;;;;0.20;0.20;;;27.00;99.90;;;;;;4957944;28;20092;-81
2022/07/12 11:32:39;;;;;;;0.28;0.28;;;26.90;99.90;;;;;;4965102;28;20525;-80
2022/07/12 11:35:18;;;;;;;0.20;0.20;;;26.80;99.90;;;;;;4951516;28;20488;-76
2022/07/12 11:37:52;;;;;;;0.20;0.20;;;26.80;99.90;;;;;;4977570;28;20051;-77
2022/07/12 11:40:28;;;;;;;0.52;0.50;;;26.80;99.90;;;;;;4961152;28;20065;-80
2022/07/12 11:42:59;;;;;;;0.20;0.20;;;26.90;99.90;;;;;;4953819;28;20055;-81
2022/07/12 11:45:33;;;;;;;0.20;0.20;;;27.00;99.90;;;;;;4952696;28;20059;-77
2022/07/12 11:48:02;;;;;;;0.85;0.68;;;27.10;99.90;;;;;;4959731;28;20040;-80
2022/07/12 11:50:31;;;;;;;0.30;0.30;;;27.20;99.90;;;;;;4937604;28;20051;-78
2022/07/12 11:52:57;;;;;;;0.17;0.13;;;27.30;99.90;;;;;;4962614;28;20035;-77
2022/07/12 11:55:24;;;;;;;0.20;0.20;;;27.50;99.90;;;;;;4970566;28;20046;-79
2022/07/12 11:57:50;;;;;;;0.20;0.20;;;27.40;99.90;;;;;;4960587;28;20173;-79
2022/07/12 12:00:19;;;;;;;0.10;0.10;;;27.40;99.90;;;;;;4955291;28;20063;-77
2022/07/12 12:02:45;;;;;;;0.20;0.20;;;27.50;99.90;;;;;;4959309;28;20087;-77
2022/07/12 12:05:12;;;;;;;0.30;0.30;;;27.50;99.90;;;;;;4965849;28;20393;-79
2022/07/12 12:07:38;;;;;;;0.00;0.00;;;27.50;99.90;;;;;;4957987;28;20055;-78
2022/07/12 12:10:15;;;;;;;0.30;0.30;;;27.60;99.90;;;;;;4960829;28;20047;-77
2022/07/12 12:12:50;;;;;;;0.10;0.10;;;27.80;99.90;;;;;;4944345;28;20047;-77
2022/07/12 12:15:19;;;;;;;0.22;0.22;;;27.80;99.90;;;;;;4953932;28;20523;-78
2022/07/12 12:18:07;;;;;;;0.10;0.10;;;27.70;98.10;;;;;;4933421;28;20047;-79
2022/07/12 12:20:38;;;;;;;0.30;0.30;;;27.50;96.90;;;;;;4956809;28;20474;-77
2022/07/12 12:23:05;;;;;;;0.20;0.20;;;27.50;98.10;;;;;;4955357;28;20362;-79
2022/07/12 12:25:32;;;;;;;0.82;0.60;;;27.50;96.50;;;;;;4936054;28;20692;-77
2022/07/12 12:28:04;;;;;;;0.20;0.20;;;27.60;97.10;;;;;;4952156;28;20062;-76
2022/07/12 12:30:35;;;;;;;0.40;0.40;;;27.40;95.40;;;;;;4963267;28;20051;-77
2022/07/12 12:33:07;;;;;;;0.20;0.20;;;27.40;96.40;;;;;;4953174;28;20140;-76
2022/07/12 12:35:38;;;;;;;0.10;0.10;;;27.60;96.80;;;;;;4939778;28;20039;-75
2022/07/12 12:38:14;;;;;;;0.20;0.20;;;27.80;96.40;;;;;;4955273;28;20047;-77
2022/07/12 12:40:49;;;;;;;0.10;0.10;;;27.90;95.30;;;;;;4952730;28;20055;-76
2022/07/12 12:43:19;;;;;;;0.10;0.10;;;27.80;95.20;;;;;;4955563;28;20125;-78
2022/07/12 12:45:56;;;;;;;0.10;0.10;;;27.80;93.40;;;;;;5017723;28;20054;-73
2022/07/12 12:48:27;;;;;;;0.10;0.10;;;27.80;91.60;;;;;;4950183;28;20532;-76
2022/07/12 12:51:01;;;;;;;0.20;0.20;;;27.70;90.30;;;;;;4956994;28;20460;-75
2022/07/12 12:53:27;;;;;;;0.15;0.15;;;27.70;90.80;;;;;;4957782;28;20051;-77
2022/07/12 12:55:55;;;;;;;0.45;0.45;;;27.70;90.60;;;;;;4963410;28;20046;-76
2022/07/12 12:58:22;;;;;;;0.20;0.20;;;27.70;91.20;;;;;;4941758;28;20057;-76
2022/07/12 13:00:50;;;;;;;1.17;0.88;;;27.80;90.90;;;;;;4953174;28;20047;-78
2022/07/12 13:03:17;;;;;;;0.47;0.47;;;27.80;90.90;;;;;;4937938;28;20043;-78
2022/07/12 13:05:44;;;;;;;1.48;0.68;;;27.90;91.90;;;;;;4951299;28;20030;-76
2022/07/12 13:08:11;;;;;;;0.25;0.25;;;27.80;92.30;;;;;;4962581;28;20063;-76
2022/07/12 13:10:38;;;;;;;0.63;0.50;;;27.80;93.40;;;;;;4956094;28;20054;-78